Time;durP1;ratioP1;P1;durP2;ratioP2;P2;SDS_P1;SDS_P2;PMS_P1;PMS_P2;Temp;Humidity;BMP_temperature;BMP_pressure;BME280_temperature;BME280_humidity;BME280_pressure;Samples;Min_cycle;Max_cycle;Signal;HPM_P1;HPM_P2
2022/08/23 00:01:58;;;;;;;2.25;0.57;;;19.30;99.90;;;;;;4992017;28;20213;-52
2022/08/23 00:04:27;;;;;;;2.33;0.50;;;19.30;99.90;;;;;;4992076;28;20167;-52
2022/08/23 00:06:54;;;;;;;1.60;0.52;;;19.30;99.90;;;;;;4991879;28;20207;-52
2022/08/23 00:09:22;;;;;;;5.32;0.60;;;19.30;99.90;;;;;;4992115;28;20175;-52
2022/08/23 00:11:51;;;;;;;2.20;0.65;;;19.20;99.90;;;;;;4991947;28;20175;-52
2022/08/23 00:14:24;;;;;;;1.33;0.68;;;19.20;99.90;;;;;;4991949;28;20199;-52
2022/08/23 00:16:50;;;;;;;2.30;0.70;;;19.20;99.90;;;;;;4991989;28;20175;-51
2022/08/23 00:19:18;;;;;;;4.38;1.02;;;19.20;99.90;;;;;;4991929;28;20194;-51
2022/08/23 00:21:44;;;;;;;4.60;0.93;;;19.20;99.90;;;;;;4991875;28;20179;-52
2022/08/23 00:24:12;;;;;;;5.05;1.00;;;19.10;99.90;;;;;;4991777;28;20221;-52
2022/08/23 00:26:54;;;;;;;1.88;0.82;;;19.10;99.90;;;;;;4991543;28;20217;-52
2022/08/23 00:29:21;;;;;;;5.72;1.10;;;19.10;99.90;;;;;;4992006;28;20179;-52
2022/08/23 00:31:47;;;;;;;4.72;1.00;;;19.10;99.90;;;;;;4990561;28;20708;-53
2022/08/23 00:34:13;;;;;;;2.13;1.00;;;19.00;99.90;;;;;;4991824;28;20187;-52
2022/08/23 00:36:39;;;;;;;4.88;1.40;;;19.00;99.90;;;;;;4974748;28;20179;-52
2022/08/23 00:39:05;;;;;;;5.18;1.67;;;18.80;99.90;;;;;;4991949;28;20171;-52
2022/08/23 00:41:33;;;;;;;4.00;1.52;;;18.80;99.90;;;;;;4991919;28;20565;-52
2022/08/23 00:49:37;;;;;;;6.65;2.15;;;18.90;99.90;;;;;;4992162;28;20174;-52
2022/08/23 00:52:16;;;;;;;5.03;1.90;;;18.60;99.90;;;;;;4991763;28;20245;-52
2022/08/23 00:54:42;;;;;;;4.50;2.00;;;18.70;99.90;;;;;;4991742;28;20186;-52
2022/08/23 00:57:13;;;;;;;9.05;2.55;;;18.60;99.90;;;;;;4991637;28;20171;-52
2022/08/23 00:59:39;;;;;;;12.85;2.60;;;18.60;99.90;;;;;;4991788;28;20235;-52
2022/08/23 01:02:05;;;;;;;9.15;2.80;;;18.70;99.90;;;;;;4991702;28;20187;-52
2022/08/23 01:04:37;;;;;;;8.90;2.42;;;18.60;99.90;;;;;;4991594;28;20660;-52
2022/08/23 01:07:18;;;;;;;8.88;2.58;;;18.70;99.90;;;;;;4991562;28;20207;-52
2022/08/23 01:09:47;;;;;;;14.13;2.78;;;18.70;99.90;;;;;;4991518;28;20616;-52
2022/08/23 01:12:41;;;;;;;9.15;3.45;;;18.70;99.90;;;;;;4991530;28;20668;-52
2022/08/23 01:15:20;;;;;;;9.77;2.83;;;18.70;99.90;;;;;;4988801;28;20266;-52
2022/08/23 01:17:50;;;;;;;9.15;3.15;;;18.80;99.90;;;;;;4974339;28;20469;-51
2022/08/23 01:20:21;;;;;;;8.55;3.10;;;18.80;99.90;;;;;;4991693;28;20210;-52
2022/08/23 01:23:06;;;;;;;7.63;3.15;;;18.90;99.90;;;;;;4991589;28;20186;-52
2022/08/23 01:25:33;;;;;;;13.27;3.22;;;18.80;99.90;;;;;;4991015;28;20219;-52
2022/08/23 01:27:59;;;;;;;7.78;2.88;;;18.80;99.90;;;;;;4991472;28;20187;-52
2022/08/23 01:30:28;;;;;;;10.50;2.95;;;18.90;99.90;;;;;;4991301;28;20175;-52
2022/08/23 01:32:58;;;;;;;9.13;2.65;;;18.90;99.90;;;;;;4991449;28;20263;-52
2022/08/23 01:35:40;;;;;;;14.13;3.25;;;18.90;99.90;;;;;;4991352;28;20174;-52
2022/08/23 01:38:07;;;;;;;13.73;3.25;;;18.90;99.90;;;;;;4991882;28;20175;-52
2022/08/23 01:40:34;;;;;;;14.77;2.95;;;18.90;99.90;;;;;;4995115;28;20163;-52
2022/08/23 01:43:00;;;;;;;14.15;3.28;;;18.90;99.90;;;;;;4994970;28;20179;-52
2022/08/23 01:45:27;;;;;;;8.40;2.70;;;18.90;99.90;;;;;;4995000;28;20179;-52
2022/08/23 01:47:53;;;;;;;5.00;2.38;;;18.90;99.90;;;;;;4994770;28;20179;-52
2022/08/23 01:50:19;;;;;;;10.55;3.15;;;19.00;99.90;;;;;;4994975;28;20198;-52
2022/08/23 01:52:45;;;;;;;13.27;2.90;;;19.00;99.90;;;;;;4994717;28;20187;-53
2022/08/23 01:55:10;;;;;;;6.43;2.47;;;19.00;99.90;;;;;;4994683;28;20174;-52
2022/08/23 01:57:36;;;;;;;9.20;3.05;;;19.00;99.90;;;;;;4994715;28;20179;-52
2022/08/23 02:00:04;;;;;;;6.63;2.80;;;19.00;99.90;;;;;;4994740;28;20712;-52
2022/08/23 02:02:30;;;;;;;8.55;2.70;;;19.00;99.90;;;;;;4994599;28;20183;-52
2022/08/23 02:04:56;;;;;;;7.70;2.38;;;19.00;99.90;;;;;;4994630;28;20245;-52
2022/08/23 02:07:28;;;;;;;9.63;2.88;;;19.00;99.90;;;;;;4994493;28;20218;-53
2022/08/23 02:09:54;;;;;;;11.23;3.05;;;19.00;99.90;;;;;;4994459;28;20171;-52
2022/08/23 02:12:21;;;;;;;7.63;2.50;;;19.00;99.90;;;;;;4994495;28;20175;-52
2022/08/23 02:14:46;;;;;;;11.73;2.80;;;19.00;99.90;;;;;;4994556;28;20199;-52
2022/08/23 02:17:14;;;;;;;5.75;2.45;;;19.00;99.90;;;;;;4994438;28;20325;-52
2022/08/23 02:19:40;;;;;;;10.18;3.13;;;19.00;99.90;;;;;;4994456;28;20182;-52
2022/08/23 02:22:07;;;;;;;10.40;2.85;;;19.10;99.90;;;;;;4994313;28;20230;-52
2022/08/23 02:24:33;;;;;;;7.15;2.20;;;19.10;99.90;;;;;;4994055;28;20250;-52
2022/08/23 02:27:03;;;;;;;11.45;3.30;;;19.10;99.90;;;;;;4994183;28;20225;-52
2022/08/23 02:29:29;;;;;;;10.07;2.58;;;19.10;99.90;;;;;;4994136;28;20199;-52
2022/08/23 02:31:56;;;;;;;7.47;2.53;;;19.10;99.90;;;;;;4992907;28;20206;-52
2022/08/23 02:34:22;;;;;;;11.75;3.05;;;19.10;99.90;;;;;;4994137;28;20171;-53
2022/08/23 02:36:48;;;;;;;10.30;2.72;;;19.10;99.90;;;;;;4994024;28;20187;-52
2022/08/23 02:39:16;;;;;;;9.05;2.70;;;19.10;99.90;;;;;;4993955;28;20167;-52
2022/08/23 02:41:42;;;;;;;7.82;2.35;;;19.10;99.90;;;;;;4993909;28;20251;-52
2022/08/23 02:44:09;;;;;;;7.80;2.58;;;19.10;99.90;;;;;;4994102;28;20171;-52
2022/08/23 02:46:37;;;;;;;7.07;2.60;;;19.10;99.90;;;;;;4993847;28;20227;-52
2022/08/23 02:49:03;;;;;;;7.50;2.60;;;19.10;99.90;;;;;;4993656;28;20229;-52
2022/08/23 02:51:29;;;;;;;10.27;2.75;;;19.10;99.90;;;;;;4993341;28;20217;-52
2022/08/23 02:53:55;;;;;;;8.40;2.30;;;19.10;99.90;;;;;;4993817;28;20209;-53
2022/08/23 02:56:22;;;;;;;7.07;2.22;;;19.10;99.90;;;;;;4993710;28;20183;-52
2022/08/23 02:58:49;;;;;;;8.25;2.35;;;19.10;99.90;;;;;;4993551;28;20642;-52
2022/08/23 03:01:24;;;;;;;8.43;2.30;;;19.00;99.90;;;;;;4993601;28;20265;-52
2022/08/23 03:03:50;;;;;;;4.88;2.53;;;19.00;99.90;;;;;;4993508;28;20175;-52
2022/08/23 03:06:15;;;;;;;6.68;2.92;;;19.00;99.90;;;;;;4993320;28;20205;-52
2022/08/23 03:08:42;;;;;;;7.78;2.70;;;18.90;99.90;;;;;;4993484;28;20246;-52
2022/08/23 03:11:14;;;;;;;7.72;2.55;;;18.90;99.90;;;;;;4992097;28;20171;-52
2022/08/23 03:13:41;;;;;;;7.25;2.17;;;18.80;99.90;;;;;;4993348;28;20175;-53
2022/08/23 03:16:08;;;;;;;11.35;2.13;;;18.80;99.90;;;;;;4993240;28;20171;-52
2022/08/23 03:18:35;;;;;;;9.95;2.33;;;18.80;99.90;;;;;;4993163;28;20305;-52
2022/08/23 03:21:02;;;;;;;6.50;2.08;;;18.80;99.90;;;;;;4993198;28;20642;-52
2022/08/23 03:23:28;;;;;;;5.32;2.20;;;18.80;99.90;;;;;;4993082;28;20229;-52
2022/08/23 03:25:56;;;;;;;6.53;2.10;;;18.80;99.90;;;;;;4992881;28;20230;-52
2022/08/23 03:28:22;;;;;;;6.88;2.08;;;18.80;99.90;;;;;;4993129;28;20176;-52
2022/08/23 03:30:48;;;;;;;7.28;1.95;;;19.20;99.90;;;;;;4993029;28;20179;-53
2022/08/23 03:33:14;;;;;;;6.80;1.80;;;18.80;99.90;;;;;;4992853;28;20278;-52
2022/08/23 03:35:41;;;;;;;5.75;2.03;;;18.90;99.90;;;;;;4993097;28;20207;-52
2022/08/23 03:38:06;;;;;;;6.95;2.03;;;18.90;99.90;;;;;;4993059;28;20203;-52
2022/08/23 03:40:32;;;;;;;5.63;2.10;;;18.90;99.90;;;;;;4992832;28;20595;-52
2022/08/23 03:42:58;;;;;;;6.93;2.22;;;18.80;99.90;;;;;;4992655;28;20175;-52
2022/08/23 03:45:23;;;;;;;4.40;1.98;;;18.80;99.90;;;;;;4992680;28;20175;-52
2022/08/23 03:47:49;;;;;;;8.15;2.10;;;18.90;99.90;;;;;;4992561;28;20199;-52
2022/08/23 03:50:15;;;;;;;8.07;2.10;;;18.90;99.90;;;;;;4992652;28;20626;-52
2022/08/23 03:52:40;;;;;;;9.05;2.47;;;18.80;99.90;;;;;;4975309;28;20183;-52
2022/08/23 03:55:06;;;;;;;5.82;2.70;;;18.80;99.90;;;;;;4992465;28;20171;-52
2022/08/23 03:57:33;;;;;;;5.07;2.53;;;18.80;99.90;;;;;;4992522;28;20181;-53
2022/08/23 03:59:58;;;;;;;7.78;3.25;;;18.70;99.90;;;;;;4992404;28;20187;-53
2022/08/23 04:02:25;;;;;;;9.18;3.00;;;18.70;99.90;;;;;;4991552;28;20179;-53
2022/08/23 04:04:50;;;;;;;7.68;2.88;;;18.60;99.90;;;;;;4992450;28;20171;-53
2022/08/23 04:07:22;;;;;;;13.93;3.38;;;18.50;99.90;;;;;;4992296;28;20569;-53
2022/08/23 04:09:47;;;;;;;8.35;3.08;;;18.50;99.90;;;;;;4992320;28;20642;-54
2022/08/23 04:12:13;;;;;;;10.48;2.92;;;18.40;99.90;;;;;;4992391;28;20213;-60
2022/08/23 04:14:39;;;;;;;8.57;3.35;;;18.50;99.90;;;;;;4992262;28;20171;-53
2022/08/23 04:17:05;;;;;;;10.57;3.10;;;18.50;99.90;;;;;;4992206;28;20207;-53
2022/08/23 04:19:31;;;;;;;8.73;3.40;;;18.50;99.90;;;;;;4992051;28;20182;-53
2022/08/23 04:21:57;;;;;;;6.43;3.20;;;18.40;99.90;;;;;;4992233;28;20179;-59
2022/08/23 04:24:23;;;;;;;8.85;3.25;;;18.40;99.90;;;;;;4992006;28;20219;-54
2022/08/23 04:26:48;;;;;;;7.68;3.33;;;18.40;99.90;;;;;;4992024;28;20612;-53
2022/08/23 04:29:16;;;;;;;5.57;3.33;;;18.20;99.90;;;;;;4992095;28;20194;-53
2022/08/23 04:31:43;;;;;;;10.30;3.53;;;18.20;99.90;;;;;;4992023;28;20183;-54
2022/08/23 04:34:08;;;;;;;12.18;3.88;;;18.10;99.90;;;;;;4992199;28;20179;-53
2022/08/23 04:36:39;;;;;;;9.57;3.47;;;18.10;99.90;;;;;;4992140;28;20206;-53
2022/08/23 04:39:06;;;;;;;11.27;3.58;;;18.10;99.90;;;;;;4992029;28;20183;-53
2022/08/23 04:44:16;;;;;;;8.30;3.60;;;17.90;99.90;;;;;;4992107;28;20202;-52
2022/08/23 04:46:46;;;;;;;8.32;3.33;;;17.90;99.90;;;;;;4991736;28;20665;-51
2022/08/23 04:49:11;;;;;;;11.15;3.50;;;17.80;99.90;;;;;;4990612;28;20168;-53
2022/08/23 04:51:37;;;;;;;10.80;3.65;;;17.80;99.90;;;;;;4991821;28;20692;-53
2022/08/23 04:54:04;;;;;;;7.95;4.00;;;17.80;99.90;;;;;;4991832;28;20179;-53
2022/08/23 04:56:29;;;;;;;9.27;3.83;;;17.70;99.90;;;;;;4991606;28;20634;-52
2022/08/23 04:58:56;;;;;;;10.50;3.90;;;17.70;99.90;;;;;;4991839;28;20174;-52
2022/08/23 05:01:24;;;;;;;12.13;4.13;;;17.60;99.90;;;;;;4991524;28;20190;-52
2022/08/23 05:03:50;;;;;;;15.85;4.10;;;17.50;99.90;;;;;;4990486;28;20242;-52
2022/08/23 05:06:17;;;;;;;8.40;3.75;;;17.50;99.90;;;;;;4991622;28;20202;-53
2022/08/23 05:08:42;;;;;;;11.50;4.38;;;17.50;99.90;;;;;;4991763;28;20182;-52
2022/08/23 05:11:09;;;;;;;10.57;3.95;;;17.50;99.90;;;;;;4991627;28;20175;-52
2022/08/23 05:13:36;;;;;;;10.77;4.65;;;17.50;99.90;;;;;;4993179;28;20171;-53
2022/08/23 05:16:02;;;;;;;6.60;4.07;;;17.50;99.90;;;;;;4995644;28;20163;-52
2022/08/23 05:18:28;;;;;;;10.45;3.92;;;17.60;99.90;;;;;;4995558;28;20207;-52
2022/08/23 05:20:53;;;;;;;7.50;3.85;;;17.60;99.90;;;;;;4995491;28;20677;-52
2022/08/23 05:23:19;;;;;;;14.57;3.97;;;17.60;99.90;;;;;;4995365;28;20277;-52
2022/08/23 05:25:48;;;;;;;13.65;4.10;;;17.60;99.90;;;;;;4995048;28;20218;-52
2022/08/23 05:28:16;;;;;;;16.40;4.22;;;17.70;99.90;;;;;;4995301;28;20623;-53
2022/08/23 05:30:41;;;;;;;9.30;3.67;;;17.70;99.90;;;;;;4995361;28;20198;-53
2022/08/23 05:33:07;;;;;;;11.13;3.53;;;17.70;99.90;;;;;;4993993;28;20625;-53
2022/08/23 05:35:33;;;;;;;7.95;3.58;;;17.80;99.90;;;;;;4995097;28;20205;-52
2022/08/23 05:37:59;;;;;;;10.18;3.38;;;17.70;99.90;;;;;;4995151;28;20210;-52
2022/08/23 05:40:26;;;;;;;11.90;3.40;;;17.80;99.90;;;;;;4995087;28;20187;-52
2022/08/23 05:42:52;;;;;;;10.80;3.50;;;17.90;99.90;;;;;;4995006;28;20206;-52
2022/08/23 05:45:18;;;;;;;10.10;3.22;;;17.80;99.90;;;;;;4995019;28;20209;-53
2022/08/23 05:47:43;;;;;;;16.38;4.03;;;17.80;99.90;;;;;;4994942;28;20207;-53
2022/08/23 05:50:09;;;;;;;12.95;3.15;;;17.90;99.90;;;;;;4994901;28;20562;-51
2022/08/23 05:52:35;;;;;;;10.73;3.13;;;17.90;99.90;;;;;;4995243;28;20634;-50
2022/08/23 05:55:01;;;;;;;13.45;3.50;;;18.00;99.90;;;;;;4994894;28;20186;-51
2022/08/23 05:57:27;;;;;;;11.10;3.20;;;18.00;99.90;;;;;;4995161;28;20179;-51
2022/08/23 05:59:52;;;;;;;13.55;3.53;;;18.00;99.90;;;;;;4994805;28;20176;-52
2022/08/23 06:02:18;;;;;;;10.38;3.20;;;18.00;99.90;;;;;;4994742;28;20171;-51
2022/08/23 06:04:44;;;;;;;6.60;3.13;;;18.00;99.90;;;;;;4994682;28;20665;-51
2022/08/23 06:07:10;;;;;;;5.78;2.95;;;17.90;99.90;;;;;;4994477;28;20218;-52
2022/08/23 06:09:36;;;;;;;10.27;3.65;;;18.00;99.90;;;;;;4994533;28;20221;-51
2022/08/23 06:12:02;;;;;;;6.07;3.25;;;18.10;99.90;;;;;;4994489;28;20159;-51
2022/08/23 06:14:28;;;;;;;7.60;2.90;;;18.20;99.90;;;;;;4994511;28;20254;-52
2022/08/23 06:16:54;;;;;;;7.65;2.30;;;18.20;99.90;;;;;;4994380;28;20182;-52
2022/08/23 06:19:19;;;;;;;9.77;2.88;;;18.30;99.90;;;;;;4994435;28;20183;-52
2022/08/23 06:21:45;;;;;;;11.27;3.78;;;18.30;99.90;;;;;;4994279;28;20171;-51
2022/08/23 06:24:12;;;;;;;9.93;3.08;;;18.40;99.90;;;;;;4993797;28;20322;-52
2022/08/23 06:26:41;;;;;;;10.85;3.40;;;18.40;99.90;;;;;;4993388;28;20218;-52
2022/08/23 06:29:11;;;;;;;12.80;3.10;;;18.40;99.90;;;;;;4994362;28;20258;-51
2022/08/23 06:31:46;;;;;;;9.52;3.08;;;18.50;99.90;;;;;;4994240;28;20198;-52
2022/08/23 06:34:17;;;;;;;6.57;2.78;;;18.50;99.90;;;;;;4994079;28;20544;-52
2022/08/23 06:36:45;;;;;;;6.85;2.83;;;18.60;99.90;;;;;;4993937;28;20183;-52
2022/08/23 06:39:11;;;;;;;11.18;2.67;;;18.70;99.90;;;;;;4994280;28;20321;-53
2022/08/23 06:41:38;;;;;;;11.15;3.00;;;18.70;99.90;;;;;;4994084;28;20203;-52
2022/08/23 06:44:03;;;;;;;7.50;2.90;;;18.80;99.90;;;;;;4993995;28;20183;-52
2022/08/23 06:46:29;;;;;;;8.85;2.63;;;18.80;99.90;;;;;;4993702;28;20206;-52
2022/08/23 06:48:59;;;;;;;11.18;3.03;;;18.80;99.90;;;;;;4976355;28;20175;-52
2022/08/23 06:51:40;;;;;;;11.23;2.75;;;18.90;99.90;;;;;;4993946;28;20230;-52
2022/08/23 06:54:09;;;;;;;5.93;2.30;;;19.00;99.90;;;;;;4993717;28;20186;-52
2022/08/23 06:56:36;;;;;;;9.48;2.55;;;19.10;99.90;;;;;;4992360;28;20176;-52
2022/08/23 06:59:05;;;;;;;6.45;2.67;;;19.00;99.90;;;;;;4993595;28;20179;-52
2022/08/23 07:01:53;;;;;;;7.38;2.83;;;19.00;99.90;;;;;;4992277;28;20176;-52
2022/08/23 07:04:25;;;;;;;4.97;2.15;;;18.90;99.90;;;;;;4993664;28;20178;-52
2022/08/23 07:06:51;;;;;;;8.23;2.88;;;18.90;99.90;;;;;;4993590;28;20214;-53
2022/08/23 07:09:17;;;;;;;7.72;2.67;;;18.90;99.90;;;;;;4993431;28;20171;-52
2022/08/23 07:11:44;;;;;;;11.25;2.90;;;19.00;99.90;;;;;;4993420;28;20262;-52
2022/08/23 07:14:13;;;;;;;9.27;3.00;;;19.10;99.90;;;;;;4993245;28;20199;-52
2022/08/23 07:16:46;;;;;;;9.52;2.70;;;19.20;99.90;;;;;;4993293;28;20179;-52
2022/08/23 07:19:13;;;;;;;10.02;2.83;;;19.40;99.90;;;;;;4993151;28;20664;-52
2022/08/23 07:21:40;;;;;;;8.25;2.70;;;19.50;99.90;;;;;;4993170;28;20206;-52
2022/08/23 07:24:07;;;;;;;9.82;2.80;;;19.70;99.90;;;;;;4992967;28;20174;-52
2022/08/23 07:26:33;;;;;;;14.68;2.88;;;19.80;99.90;;;;;;4992873;28;20229;-52
2022/08/23 07:29:01;;;;;;;12.10;2.97;;;19.80;99.90;;;;;;4991621;28;20175;-52
2022/08/23 07:31:30;;;;;;;10.85;3.00;;;19.80;99.90;;;;;;4993192;28;20183;-52
2022/08/23 07:33:58;;;;;;;5.22;2.17;;;19.90;99.90;;;;;;4993136;28;20182;-52
2022/08/23 07:36:25;;;;;;;5.40;2.25;;;19.90;99.90;;;;;;4992748;28;20174;-52
2022/08/23 07:38:52;;;;;;;6.88;2.60;;;19.90;99.90;;;;;;4992655;28;20175;-52
2022/08/23 07:41:19;;;;;;;10.15;2.60;;;19.90;99.90;;;;;;4991360;28;20176;-56
2022/08/23 07:43:45;;;;;;;4.15;2.30;;;19.80;99.90;;;;;;4992713;28;20175;-52
2022/08/23 07:46:12;;;;;;;7.97;2.35;;;19.80;99.90;;;;;;4992453;28;20205;-52
2022/08/23 07:48:38;;;;;;;5.75;2.42;;;19.70;99.90;;;;;;4992403;28;20173;-52
2022/08/23 07:51:08;;;;;;;7.13;2.95;;;19.80;99.90;;;;;;4992459;28;20194;-52
2022/08/23 07:53:34;;;;;;;6.65;2.45;;;19.80;99.90;;;;;;4992272;28;20185;-52
2022/08/23 07:56:10;;;;;;;6.05;2.67;;;19.70;99.90;;;;;;4992201;28;20594;-52
2022/08/23 07:58:36;;;;;;;14.10;2.92;;;19.40;99.90;;;;;;4992428;28;20175;-51
2022/08/23 08:01:23;;;;;;;7.60;3.22;;;19.40;99.90;;;;;;4992293;28;20186;-52
2022/08/23 08:03:52;;;;;;;7.53;3.00;;;19.40;99.90;;;;;;4992073;28;20183;-55
2022/08/23 08:06:26;;;;;;;5.72;3.10;;;19.40;99.90;;;;;;4992048;28;20293;-52
2022/08/23 08:08:54;;;;;;;7.00;2.85;;;19.40;99.90;;;;;;4992104;28;20163;-52
2022/08/23 08:11:21;;;;;;;5.03;2.58;;;19.30;99.90;;;;;;4992154;28;20175;-52
2022/08/23 08:13:49;;;;;;;4.40;2.28;;;19.50;99.90;;;;;;4991892;28;20175;-52
2022/08/23 08:16:21;;;;;;;5.65;2.70;;;19.70;99.90;;;;;;4991876;28;20163;-52
2022/08/23 08:18:47;;;;;;;4.72;2.47;;;19.90;99.90;;;;;;4991781;28;20218;-53
2022/08/23 08:21:14;;;;;;;3.17;2.22;;;20.20;99.90;;;;;;4991770;28;20198;-52
2022/08/23 08:23:41;;;;;;;4.25;1.98;;;20.40;99.90;;;;;;4991928;28;20171;-52
2022/08/23 08:26:08;;;;;;;4.00;2.10;;;20.50;99.90;;;;;;4991561;28;20587;-52
2022/08/23 08:28:34;;;;;;;6.22;2.47;;;20.70;99.90;;;;;;4991667;28;20167;-51
2022/08/23 08:31:01;;;;;;;3.85;1.80;;;20.80;99.90;;;;;;4991598;28;20591;-52
2022/08/23 08:33:29;;;;;;;2.70;1.90;;;20.70;99.90;;;;;;4991659;28;20644;-52
2022/08/23 08:35:55;;;;;;;3.22;1.40;;;20.60;99.90;;;;;;4991692;28;20427;-52
2022/08/23 08:38:20;;;;;;;1.50;1.30;;;20.60;99.90;;;;;;4991828;28;20171;-52
2022/08/23 08:40:52;;;;;;;4.72;1.52;;;20.50;99.90;;;;;;4991563;28;20221;-52
2022/08/23 08:43:25;;;;;;;2.38;1.55;;;20.50;99.90;;;;;;4991606;28;20182;-52
2022/08/23 08:45:56;;;;;;;1.88;1.38;;;20.80;99.90;;;;;;4991518;28;20207;-52
2022/08/23 08:48:24;;;;;;;1.50;1.13;;;20.90;99.90;;;;;;4991178;28;20642;-52
2022/08/23 08:51:06;;;;;;;2.60;1.05;;;21.10;99.90;;;;;;4991456;28;20653;-52
2022/08/23 08:53:43;;;;;;;2.63;1.25;;;21.20;99.90;;;;;;4991388;28;20180;-52
2022/08/23 08:56:20;;;;;;;1.98;1.20;;;21.20;99.90;;;;;;4991324;28;20214;-52
2022/08/23 08:58:53;;;;;;;1.70;0.80;;;21.10;99.90;;;;;;4991427;28;20159;-52
2022/08/23 09:01:21;;;;;;;1.38;0.70;;;20.90;99.90;;;;;;4991349;28;20183;-52
2022/08/23 09:03:47;;;;;;;1.38;0.90;;;20.80;99.90;;;;;;4991413;28;20169;-51
2022/08/23 09:06:21;;;;;;;1.58;0.77;;;20.70;99.90;;;;;;4991404;28;20223;-52
2022/08/23 09:08:59;;;;;;;1.23;0.70;;;20.70;99.90;;;;;;4991314;28;20167;-52
2022/08/23 09:11:44;;;;;;;0.90;0.85;;;20.80;99.90;;;;;;4991407;28;20171;-52
2022/08/23 09:14:37;;;;;;;1.10;0.90;;;21.00;99.90;;;;;;4991085;28;20235;-52
2022/08/23 09:17:08;;;;;;;1.00;0.90;;;20.90;99.90;;;;;;4991077;28;20250;-52
2022/08/23 09:19:38;;;;;;;1.10;1.00;;;20.80;99.90;;;;;;4991302;28;20179;-53
2022/08/23 09:22:11;;;;;;;0.70;0.70;;;20.80;99.90;;;;;;4973916;28;20218;-53
2022/08/23 09:24:36;;;;;;;1.30;0.65;;;20.90;99.90;;;;;;4991100;28;20227;-53
2022/08/23 09:27:03;;;;;;;2.20;0.90;;;21.00;99.90;;;;;;4990980;28;20207;-53
2022/08/23 09:29:34;;;;;;;2.83;1.10;;;21.30;99.90;;;;;;4991046;28;20250;-53
2022/08/23 09:32:03;;;;;;;2.38;0.88;;;21.30;99.90;;;;;;4991358;28;20183;-53
2022/08/23 09:34:28;;;;;;;0.65;0.65;;;21.50;99.90;;;;;;4991179;28;20183;-53
2022/08/23 09:37:04;;;;;;;1.40;1.00;;;21.60;99.90;;;;;;4991229;28;20171;-53
2022/08/23 09:39:33;;;;;;;1.13;0.90;;;21.80;99.90;;;;;;4991217;28;20526;-53
2022/08/23 09:41:59;;;;;;;1.40;0.80;;;22.10;99.90;;;;;;4991259;28;20172;-53
2022/08/23 09:44:36;;;;;;;1.63;0.80;;;22.40;99.90;;;;;;4990997;28;20176;-54
2022/08/23 09:47:22;;;;;;;1.63;0.73;;;22.80;99.90;;;;;;4991008;28;20210;-53
2022/08/23 09:49:50;;;;;;;3.28;0.80;;;23.20;99.90;;;;;;4991061;28;20175;-53
2022/08/23 09:52:24;;;;;;;1.75;0.80;;;23.20;99.90;;;;;;4990875;28;20179;-52
2022/08/23 09:54:59;;;;;;;2.05;0.60;;;22.90;99.90;;;;;;4990737;28;20171;-53
2022/08/23 09:57:28;;;;;;;1.23;1.02;;;22.70;99.90;;;;;;4991101;28;20188;-53
2022/08/23 09:59:58;;;;;;;1.48;0.80;;;22.80;99.90;;;;;;4991132;28;20198;-53
2022/08/23 10:02:32;;;;;;;1.98;0.80;;;22.50;99.90;;;;;;4994620;28;20174;-53
2022/08/23 10:05:17;;;;;;;2.85;0.80;;;22.50;99.90;;;;;;4994323;28;20642;-53
2022/08/23 10:07:58;;;;;;;1.52;0.70;;;22.60;99.90;;;;;;4994290;28;20215;-52
2022/08/23 10:10:30;;;;;;;1.13;0.65;;;22.60;99.90;;;;;;4993200;28;20642;-53
2022/08/23 10:12:57;;;;;;;0.50;0.50;;;22.70;99.90;;;;;;4993050;28;20183;-53
2022/08/23 10:15:43;;;;;;;0.95;0.40;;;22.70;99.90;;;;;;4994239;28;20560;-53
2022/08/23 10:18:39;;;;;;;1.75;0.70;;;22.50;99.90;;;;;;4994146;28;20175;-53
2022/08/23 10:21:35;;;;;;;2.17;0.70;;;22.50;99.90;;;;;;4993974;28;20177;-53
2022/08/23 10:24:09;;;;;;;1.05;0.60;;;22.60;99.90;;;;;;4959352;28;20187;-52
2022/08/23 10:26:43;;;;;;;1.30;0.63;;;22.60;99.90;;;;;;4993892;28;20215;-53
2022/08/23 10:29:42;;;;;;;0.60;0.50;;;22.50;99.90;;;;;;4993895;28;20174;-53
2022/08/23 10:32:08;;;;;;;1.17;0.50;;;22.60;99.90;;;;;;4993744;28;20171;-52
2022/08/23 10:35:16;;;;;;;3.40;0.80;;;22.50;99.90;;;;;;4993856;28;20638;-53
2022/08/23 10:37:46;;;;;;;1.10;0.70;;;22.60;99.90;;;;;;4993939;28;20653;-53
2022/08/23 10:40:18;;;;;;;2.92;1.10;;;23.10;99.90;;;;;;4993681;28;20160;-53
2022/08/23 10:43:12;;;;;;;6.10;0.80;;;24.10;99.90;;;;;;4993904;28;20186;-53
2022/08/23 10:45:40;;;;;;;4.65;1.00;;;24.20;99.90;;;;;;4993505;28;20167;-53
2022/08/23 10:48:18;;;;;;;1.55;0.70;;;24.90;99.90;;;;;;4976220;28;20539;-54
2022/08/23 10:51:05;;;;;;;2.30;0.80;;;25.60;99.90;;;;;;4993433;28;20167;-53
2022/08/23 10:53:46;;;;;;;3.08;0.47;;;26.40;99.90;;;;;;4993550;28;20186;-54
2022/08/23 10:56:19;;;;;;;1.38;0.57;;;27.50;99.90;;;;;;4993708;28;20237;-54
2022/08/23 10:59:13;;;;;;;2.67;0.65;;;28.10;99.90;;;;;;4993500;28;20218;-53
2022/08/23 11:02:05;;;;;;;1.38;0.50;;;29.50;99.90;;;;;;4993617;28;20270;-53
2022/08/23 11:04:47;;;;;;;0.80;0.50;;;29.20;99.90;;;;;;4993364;28;20172;-54
2022/08/23 11:07:18;;;;;;;1.85;0.77;;;29.90;99.90;;;;;;4993271;28;20206;-53
2022/08/23 11:09:52;;;;;;;0.88;0.70;;;28.60;99.90;;;;;;4993534;28;20221;-53
2022/08/23 11:12:23;;;;;;;2.95;0.70;;;27.70;99.90;;;;;;4992824;28;20179;-54
2022/08/23 11:15:03;;;;;;;1.52;0.55;;;28.00;99.90;;;;;;4993374;28;20182;-54
2022/08/23 11:17:36;;;;;;;1.92;0.60;;;27.70;99.90;;;;;;4993045;28;20179;-52
2022/08/23 11:20:08;;;;;;;2.00;0.60;;;27.30;99.90;;;;;;4992782;28;20248;-53
2022/08/23 11:22:57;;;;;;;1.83;0.70;;;27.00;99.90;;;;;;4975325;28;20214;-53
2022/08/23 11:25:22;;;;;;;1.70;0.70;;;26.50;99.90;;;;;;4954213;28;20258;-54
2022/08/23 11:27:48;;;;;;;1.90;0.90;;;26.00;99.90;;;;;;4992681;28;20692;-53
2022/08/23 11:30:33;;;;;;;3.30;0.70;;;25.80;99.90;;;;;;4992794;28;20167;-53
2022/08/23 11:33:08;;;;;;;3.95;0.63;;;26.10;99.90;;;;;;4992784;28;20167;-54
2022/08/23 11:35:47;;;;;;;0.40;0.40;;;26.30;99.90;;;;;;4992853;28;20174;-52
2022/08/23 11:38:14;;;;;;;0.90;0.60;;;25.90;99.90;;;;;;4992763;28;20233;-53
2022/08/23 11:40:49;;;;;;;1.70;0.50;;;25.60;99.90;;;;;;4992567;28;20182;-53
2022/08/23 11:43:24;;;;;;;4.60;0.80;;;25.50;99.90;;;;;;4992537;28;20179;-53
2022/08/23 11:45:50;;;;;;;2.38;0.70;;;25.60;99.90;;;;;;4992426;28;20181;-53
2022/08/23 11:48:36;;;;;;;4.82;0.80;;;25.70;99.90;;;;;;4992534;28;20252;-53
2022/08/23 11:51:28;;;;;;;1.23;0.80;;;26.90;99.90;;;;;;4992424;28;20708;-52
2022/08/23 11:53:53;;;;;;;2.85;0.70;;;26.70;99.90;;;;;;4981712;28;20191;-54
2022/08/23 11:56:37;;;;;;;6.47;0.85;;;26.20;99.90;;;;;;4992368;28;20211;-53
2022/08/23 11:59:15;;;;;;;4.15;1.02;;;25.90;99.90;;;;;;4992163;28;20175;-53
2022/08/23 12:01:43;;;;;;;4.68;0.90;;;25.70;99.90;;;;;;4992143;28;20174;-53
2022/08/23 12:04:25;;;;;;;1.48;0.77;;;26.00;99.90;;;;;;4992377;28;20218;-53
2022/08/23 12:07:00;;;;;;;1.55;0.80;;;26.30;99.90;;;;;;4992167;28;20237;-54
2022/08/23 12:09:26;;;;;;;2.58;0.95;;;26.40;99.90;;;;;;4992154;28;20183;-53
2022/08/23 12:11:54;;;;;;;1.90;0.90;;;26.70;99.90;;;;;;4992057;28;20274;-54
2022/08/23 12:14:38;;;;;;;1.95;0.90;;;26.60;99.90;;;;;;4992058;28;20199;-53
2022/08/23 12:17:27;;;;;;;1.50;0.75;;;26.30;99.90;;;;;;4992195;28;20234;-53
2022/08/23 12:19:57;;;;;;;4.47;1.40;;;25.80;99.90;;;;;;4991930;28;20265;-53
2022/08/23 12:22:27;;;;;;;2.53;1.00;;;26.00;99.90;;;;;;4991387;28;20508;-53
2022/08/23 12:24:58;;;;;;;4.80;1.17;;;26.60;99.90;;;;;;4991604;28;20218;-53
2022/08/23 12:27:26;;;;;;;2.78;1.00;;;26.70;99.90;;;;;;4991973;28;20222;-53
2022/08/23 12:30:24;;;;;;;2.38;1.00;;;26.80;99.90;;;;;;4991575;28;20167;-53
2022/08/23 12:33:05;;;;;;;2.55;1.00;;;26.90;99.90;;;;;;4958435;28;20766;-53
2022/08/23 12:35:40;;;;;;;4.75;1.10;;;26.40;99.90;;;;;;4991871;28;20629;-54
2022/08/23 12:38:28;;;;;;;2.20;1.08;;;26.60;99.90;;;;;;4991755;28;20221;-54
2022/08/23 12:40:54;;;;;;;8.15;1.00;;;26.90;99.90;;;;;;4991582;28;20175;-54
2022/08/23 12:43:20;;;;;;;1.90;1.15;;;27.00;99.90;;;;;;4991456;28;20229;-54
2022/08/23 12:45:55;;;;;;;1.52;1.00;;;26.90;99.90;;;;;;4991654;28;20203;-53
2022/08/23 12:48:25;;;;;;;5.55;1.20;;;27.00;99.90;;;;;;4974109;28;20641;-53
2022/08/23 12:51:05;;;;;;;2.15;1.10;;;27.40;99.90;;;;;;4991661;28;20701;-54
2022/08/23 12:53:34;;;;;;;3.83;1.33;;;27.30;99.90;;;;;;4991307;28;20167;-53
2022/08/23 12:56:07;;;;;;;3.42;1.10;;;27.10;99.90;;;;;;4991854;28;20642;-53
2022/08/23 12:58:37;;;;;;;1.33;1.10;;;27.00;99.90;;;;;;4991407;28;20269;-53
2022/08/23 13:01:07;;;;;;;3.58;1.25;;;26.90;99.90;;;;;;4991455;28;20307;-54
2022/08/23 13:03:40;;;;;;;2.80;1.27;;;27.00;99.90;;;;;;4991449;28;20646;-54
2022/08/23 13:06:08;;;;;;;1.38;0.90;;;27.90;99.90;;;;;;4991291;28;20213;-53
2022/08/23 13:08:46;;;;;;;6.78;1.30;;;28.20;99.90;;;;;;4991320;28;20729;-54
2022/08/23 13:11:17;;;;;;;6.45;1.20;;;28.30;99.90;;;;;;4991419;28;20270;-54